createdAt,value
2022-10-09T00:01:06.439Z,73.90
2022-10-09T00:03:34.538Z,74.41
2022-10-09T00:06:02.063Z,73.77
2022-10-09T00:08:29.316Z,73.29
2022-10-09T00:10:56.280Z,73.15
2022-10-09T00:13:23.600Z,72.83
2022-10-09T00:18:18.851Z,71.72
2022-10-09T00:20:47.059Z,72.34
2022-10-09T00:23:16.610Z,72.62
2022-10-09T00:25:55.435Z,72.04
2022-10-09T00:28:23.784Z,71.00
2022-10-09T00:30:51.104Z,70.17
2022-10-09T00:33:18.810Z,70.68
2022-10-09T00:35:46.601Z,70.84
2022-10-09T00:38:13.965Z,71.12
2022-10-09T00:40:41.244Z,70.99
2022-10-09T00:43:17.561Z,70.36
2022-10-09T00:45:50.511Z,69.88
2022-10-09T00:48:18.840Z,70.52
2022-10-09T00:50:55.217Z,70.23
2022-10-09T00:53:25.366Z,70.99
2022-10-09T00:55:52.586Z,70.55
2022-10-09T00:58:20.191Z,70.93
2022-10-09T01:00:47.534Z,71.38
2022-10-09T01:03:14.507Z,72.59
2022-10-09T01:06:00.755Z,73.66
2022-10-09T01:08:45.520Z,74.14
2022-10-09T01:11:34.149Z,73.83
2022-10-09T01:14:07.445Z,73.40
2022-10-09T01:16:43.688Z,74.36
2022-10-09T01:19:27.671Z,74.84
2022-10-09T01:22:36.190Z,73.94
2022-10-09T01:25:09.281Z,73.50
2022-10-09T01:27:37.853Z,73.18
2022-10-09T01:30:12.522Z,73.07
2022-10-09T01:32:43.974Z,73.78
2022-10-09T01:35:12.727Z,73.69
2022-10-09T01:37:42.932Z,73.81
2022-10-09T01:40:13.156Z,74.32
2022-10-09T01:42:40.959Z,74.47
2022-10-09T01:45:08.261Z,74.60
2022-10-09T01:47:35.264Z,74.83
2022-10-09T01:50:16.365Z,74.64
2022-10-09T01:52:43.218Z,74.99
2022-10-09T01:55:19.038Z,74.45
2022-10-09T01:57:49.394Z,74.58
2022-10-09T02:00:17.052Z,73.79
2022-10-09T02:02:45.734Z,75.04
2022-10-09T02:05:17.690Z,76.01
2022-10-09T02:07:45.117Z,75.91
2022-10-09T02:10:13.060Z,76.42
2022-10-09T02:12:49.563Z,75.97
2022-10-09T02:15:16.850Z,75.64
2022-10-09T02:17:47.748Z,75.82
2022-10-09T02:20:22.375Z,75.64
2022-10-09T02:22:49.572Z,74.95
2022-10-09T02:25:18.474Z,75.26
2022-10-09T02:27:46.598Z,75.85
2022-10-09T02:30:15.305Z,76.17
2022-10-09T02:32:42.244Z,76.03
2022-10-09T02:35:09.417Z,76.34
2022-10-09T02:37:36.417Z,76.20
2022-10-09T02:40:08.260Z,77.25
2022-10-09T02:42:38.002Z,77.19
2022-10-09T02:45:05.387Z,76.47
2022-10-09T02:47:32.411Z,77.16
2022-10-09T02:49:59.261Z,77.86
2022-10-09T02:52:26.106Z,78.35
2022-10-09T02:54:52.947Z,78.62
2022-10-09T02:57:19.805Z,78.78
2022-10-09T02:59:46.701Z,78.60
2022-10-09T03:02:13.817Z,78.68
2022-10-09T03:04:40.765Z,78.74
2022-10-09T03:07:07.627Z,78.22
2022-10-09T03:09:34.480Z,78.84
2022-10-09T03:12:01.302Z,78.71
2022-10-09T03:14:28.231Z,78.61
2022-10-09T03:16:55.102Z,78.63
2022-10-09T03:19:21.957Z,78.18
2022-10-09T03:21:48.787Z,78.19
2022-10-09T03:24:15.633Z,78.53
2022-10-09T03:26:42.476Z,77.99
2022-10-09T03:29:09.302Z,77.55
2022-10-09T03:31:53.065Z,77.38
2022-10-09T03:34:20.780Z,77.43
2022-10-09T03:36:47.658Z,77.69
2022-10-09T03:39:14.590Z,77.50
2022-10-09T03:41:41.580Z,77.26
2022-10-09T03:44:08.466Z,78.01
2022-10-09T03:46:35.382Z,78.12
2022-10-09T03:49:02.300Z,77.63
2022-10-09T03:51:29.239Z,76.62
2022-10-09T03:53:56.127Z,76.00
2022-10-09T03:56:22.967Z,76.55
2022-10-09T03:58:49.960Z,76.34
2022-10-09T04:01:16.896Z,77.02
2022-10-09T04:03:43.835Z,78.02
2022-10-09T04:06:11.051Z,78.29
2022-10-09T04:08:37.911Z,79.65
2022-10-09T04:11:07.353Z,79.77
2022-10-09T04:13:34.196Z,79.78
2022-10-09T04:16:01.086Z,79.34
2022-10-09T04:18:28.140Z,80.17
2022-10-09T04:20:56.798Z,79.86
2022-10-09T04:23:26.334Z,79.40
2022-10-09T04:25:54.956Z,79.70
2022-10-09T04:28:23.532Z,79.56
2022-10-09T04:30:52.416Z,78.94
2022-10-09T04:33:19.721Z,78.65
2022-10-09T04:35:50.799Z,78.56
2022-10-09T04:38:18.237Z,78.27
2022-10-09T04:40:46.061Z,77.65
2022-10-09T04:43:12.992Z,77.40
2022-10-09T04:45:40.706Z,77.13
2022-10-09T04:48:07.605Z,77.61
2022-10-09T04:50:34.539Z,78.17
2022-10-09T04:53:01.449Z,78.04
2022-10-09T04:55:28.340Z,77.56
2022-10-09T04:57:55.243Z,77.16
2022-10-09T05:00:22.409Z,77.29
2022-10-09T05:02:50.051Z,76.02
2022-10-09T05:05:17.215Z,75.53
2022-10-09T05:07:44.059Z,75.03
2022-10-09T05:10:10.968Z,75.31
2022-10-09T05:12:37.831Z,75.66
2022-10-09T05:15:05.232Z,75.77
2022-10-09T05:17:32.160Z,75.53
2022-10-09T05:19:59.072Z,75.87
2022-10-09T05:22:26.261Z,75.85
2022-10-09T05:24:53.132Z,75.49
2022-10-09T05:27:20.027Z,74.70
2022-10-09T05:29:46.884Z,74.75
2022-10-09T05:32:14.754Z,74.14
2022-10-09T05:34:41.673Z,74.45
2022-10-09T05:37:08.617Z,74.00
2022-10-09T05:39:39.413Z,73.79
2022-10-09T05:42:06.406Z,73.19
2022-10-09T05:44:33.499Z,73.12
2022-10-09T05:47:00.508Z,73.15
2022-10-09T05:49:27.561Z,73.17
2022-10-09T05:51:55.953Z,73.32
2022-10-09T05:54:22.836Z,72.94
2022-10-09T05:56:49.731Z,71.42
2022-10-09T06:02:04.166Z,70.63
2022-10-09T06:04:31.385Z,69.79
2022-10-09T06:06:59.036Z,69.03
2022-10-09T06:09:29.807Z,68.33
2022-10-09T06:11:56.970Z,68.37
2022-10-09T06:14:25.121Z,67.73
2022-10-09T06:16:55.655Z,67.29
2022-10-09T06:19:24.066Z,67.55
2022-10-09T06:21:51.890Z,66.91
2022-10-09T06:24:28.657Z,66.93
2022-10-09T06:26:56.822Z,66.54
2022-10-09T06:29:23.809Z,66.42
2022-10-09T06:31:50.672Z,66.51
2022-10-09T06:34:17.849Z,66.03
2022-10-09T06:36:45.175Z,65.55
2022-10-09T06:39:12.293Z,66.08
2022-10-09T06:41:39.993Z,64.21
2022-10-09T06:44:25.163Z,63.83
2022-10-09T06:46:52.396Z,63.09
2022-10-09T06:49:25.229Z,62.90
2022-10-09T06:51:52.468Z,62.63
2022-10-09T06:54:19.354Z,62.26
2022-10-09T06:56:47.338Z,61.94
2022-10-09T06:59:17.548Z,61.42
2022-10-09T07:01:44.587Z,60.90
2022-10-09T07:04:13.615Z,60.88
2022-10-09T07:06:46.764Z,60.66
2022-10-09T07:09:16.464Z,60.22
2022-10-09T07:11:46.717Z,60.18
2022-10-09T07:14:18.726Z,60.30
2022-10-09T07:16:48.429Z,59.98
2022-10-09T07:19:17.741Z,59.63
2022-10-09T07:21:47.113Z,59.55
2022-10-09T07:24:15.027Z,58.91
2022-10-09T07:26:44.994Z,58.53
2022-10-09T07:29:14.630Z,58.06
2022-10-09T07:31:41.645Z,58.28
2022-10-09T07:34:10.450Z,57.65
2022-10-09T07:36:38.021Z,57.10
2022-10-09T07:39:08.175Z,56.18
2022-10-09T07:41:35.633Z,55.72
2022-10-09T07:44:03.875Z,55.94
2022-10-09T07:46:33.945Z,54.87
2022-10-09T07:49:03.489Z,54.84
2022-10-09T07:51:31.246Z,54.27
2022-10-09T07:54:01.388Z,53.97
2022-10-09T07:56:31.360Z,53.77
2022-10-09T07:59:00.836Z,53.08
2022-10-09T08:01:31.780Z,52.53
2022-10-09T08:04:00.267Z,53.22
2022-10-09T08:06:29.473Z,53.14
2022-10-09T08:08:58.577Z,52.71
2022-10-09T08:11:26.801Z,52.30
2022-10-09T08:13:54.296Z,51.93
2022-10-09T08:16:24.337Z,52.10
2022-10-09T08:18:55.779Z,50.28
2022-10-09T08:21:22.891Z,50.28
2022-10-09T08:23:53.477Z,50.23
2022-10-09T08:26:21.904Z,49.93
2022-10-09T08:28:57.975Z,49.80
2022-10-09T08:31:25.702Z,49.88
2022-10-09T08:33:57.661Z,49.77
2022-10-09T08:36:25.638Z,49.67
2022-10-09T08:38:52.891Z,49.29
2022-10-09T08:41:26.698Z,48.95
2022-10-09T08:44:05.024Z,48.02
2022-10-09T08:46:53.594Z,48.63
2022-10-09T08:49:45.096Z,48.37
2022-10-09T08:52:29.976Z,48.94
2022-10-09T08:55:02.118Z,48.55
2022-10-09T08:57:34.404Z,48.42
2022-10-09T09:00:01.352Z,47.68
2022-10-09T09:02:37.944Z,47.68
2022-10-09T09:05:23.104Z,48.03
2022-10-09T09:07:52.802Z,47.88
2022-10-09T09:10:35.047Z,47.33
2022-10-09T09:13:09.883Z,47.13
2022-10-09T09:16:00.789Z,46.87
2022-10-09T09:18:49.609Z,45.87
2022-10-09T09:21:47.482Z,44.28
2022-10-09T09:24:19.025Z,43.91
2022-10-09T09:26:50.730Z,44.15
2022-10-09T09:29:23.270Z,43.50
2022-10-09T09:31:58.730Z,44.07
2022-10-09T09:34:37.763Z,43.47
2022-10-09T09:37:05.073Z,42.49
2022-10-09T09:40:30.970Z,42.77
2022-10-09T09:42:21.833Z,42.78
2022-10-09T09:45:13.759Z,42.15
2022-10-09T09:47:45.687Z,41.70
2022-10-09T09:50:34.915Z,42.02
2022-10-09T09:53:05.137Z,42.14
2022-10-09T09:55:33.881Z,41.93
2022-10-09T09:58:14.783Z,42.69
2022-10-09T10:00:41.726Z,40.87
2022-10-09T10:03:14.249Z,41.27
2022-10-09T10:05:43.271Z,41.27
2022-10-09T10:08:14.301Z,40.91
2022-10-09T10:10:46.407Z,40.80
2022-10-09T10:13:23.901Z,40.76
2022-10-09T10:15:54.778Z,41.21
2022-10-09T10:18:24.526Z,41.09
2022-10-09T10:20:57.037Z,40.89
2022-10-09T10:23:40.897Z,40.83
2022-10-09T10:26:41.919Z,41.08
2022-10-09T10:29:17.629Z,40.91
2022-10-09T10:32:17.459Z,41.03
2022-10-09T10:35:01.277Z,40.66
2022-10-09T10:37:45.764Z,40.50
2022-10-09T10:40:20.051Z,40.83
2022-10-09T10:42:59.431Z,40.49
2022-10-09T10:45:33.693Z,40.16
2022-10-09T10:48:05.800Z,39.50
2022-10-09T10:50:41.485Z,39.97
2022-10-09T10:53:11.548Z,40.50
2022-10-09T10:56:14.582Z,40.14
2022-10-09T10:58:59.264Z,40.39
2022-10-09T11:01:52.294Z,39.11
2022-10-09T11:04:29.364Z,39.44
2022-10-09T11:07:25.560Z,38.94
2022-10-09T11:09:58.675Z,39.18
2022-10-09T11:12:48.786Z,38.34
2022-10-09T11:15:31.541Z,38.51
2022-10-09T11:18:32.475Z,38.54
2022-10-09T11:21:10.031Z,38.18
2022-10-09T11:23:53.870Z,38.56
2022-10-09T11:26:31.494Z,38.45
2022-10-09T11:29:06.762Z,38.03
2022-10-09T11:31:49.149Z,38.02
2022-10-09T11:34:23.155Z,37.95
2022-10-09T11:36:50.039Z,38.26
2022-10-09T11:39:25.896Z,37.68
2022-10-09T11:41:54.890Z,37.32
2022-10-09T11:45:00.259Z,37.91
2022-10-09T11:47:27.790Z,37.91
2022-10-09T11:50:06.920Z,38.29
2022-10-09T11:53:11.978Z,37.84
2022-10-09T11:55:38.933Z,37.51
2022-10-09T11:58:23.646Z,37.39
2022-10-09T12:00:54.140Z,37.97
2022-10-09T12:03:33.334Z,38.01
2022-10-09T12:06:15.596Z,37.30
2022-10-09T12:08:55.463Z,36.68
2022-10-09T12:11:23.730Z,36.21
2022-10-09T12:14:23.897Z,36.68
2022-10-09T12:16:50.877Z,36.56
2022-10-09T12:19:31.339Z,36.48
2022-10-09T12:22:21.881Z,37.29
2022-10-09T12:24:51.476Z,36.71
2022-10-09T12:27:23.855Z,36.56
2022-10-09T12:29:55.347Z,36.22
2022-10-09T12:32:38.184Z,35.35
2022-10-09T12:35:20.388Z,35.32
2022-10-09T12:37:47.336Z,35.36
2022-10-09T12:40:22.930Z,34.85
2022-10-09T12:42:52.659Z,34.89
2022-10-09T12:45:24.449Z,34.97
2022-10-09T12:47:54.651Z,35.21
2022-10-09T12:50:26.499Z,35.00
2022-10-09T12:53:05.973Z,35.33
2022-10-09T12:55:42.498Z,35.75
2022-10-09T12:58:18.640Z,35.96
2022-10-09T13:00:54.938Z,35.97
2022-10-09T13:03:26.375Z,36.69
2022-10-09T13:05:53.546Z,36.32
2022-10-09T13:08:25.757Z,35.93
2022-10-09T13:10:54.006Z,36.36
2022-10-09T13:13:27.215Z,36.16
2022-10-09T13:16:11.883Z,37.51
2022-10-09T13:18:38.814Z,37.40
2022-10-09T13:21:29.036Z,37.07
2022-10-09T13:24:14.013Z,37.21
2022-10-09T13:26:43.407Z,37.75
2022-10-09T13:29:13.226Z,38.26
2022-10-09T13:31:43.196Z,38.91
2022-10-09T13:34:12.920Z,38.82
2022-10-09T13:36:40.475Z,39.27
2022-10-09T13:39:10.655Z,38.54
2022-10-09T13:41:37.548Z,38.96
2022-10-09T13:44:04.404Z,38.65
2022-10-09T13:46:31.309Z,38.88
2022-10-09T13:48:58.242Z,38.92
2022-10-09T13:51:25.247Z,39.26
2022-10-09T13:53:52.275Z,39.35
2022-10-09T13:56:19.742Z,40.57
2022-10-09T13:58:46.661Z,40.14
2022-10-09T14:01:13.829Z,40.17
2022-10-09T14:03:40.833Z,39.76
2022-10-09T14:06:07.828Z,40.42
2022-10-09T14:08:34.712Z,40.54
2022-10-09T14:11:01.931Z,39.91
2022-10-09T14:13:29.621Z,39.90
2022-10-09T14:15:56.715Z,40.39
2022-10-09T14:18:23.773Z,40.51
2022-10-09T14:20:50.900Z,40.46
2022-10-09T14:23:17.826Z,40.35
2022-10-09T14:25:44.773Z,39.79
2022-10-09T14:28:11.646Z,39.86
2022-10-09T14:30:45.122Z,40.15
2022-10-09T14:33:12.898Z,40.47
2022-10-09T14:35:39.840Z,40.06
2022-10-09T14:38:06.721Z,40.49
2022-10-09T14:40:33.709Z,40.59
2022-10-09T14:43:00.585Z,40.84
2022-10-09T14:45:29.272Z,41.25
2022-10-09T14:47:57.052Z,41.13
2022-10-09T14:50:24.379Z,40.88
2022-10-09T14:52:51.437Z,41.49
2022-10-09T14:55:18.626Z,41.38
2022-10-09T14:57:45.643Z,41.52
2022-10-09T15:00:13.414Z,40.96
2022-10-09T15:05:10.799Z,41.50
2022-10-09T15:07:38.028Z,41.84
2022-10-09T15:10:05.274Z,42.07
2022-10-09T15:12:32.123Z,42.28
2022-10-09T15:14:59.128Z,42.62
2022-10-09T15:17:25.980Z,42.55
2022-10-09T15:19:54.069Z,42.68
2022-10-09T15:22:20.956Z,42.95
2022-10-09T15:24:47.999Z,43.05
2022-10-09T15:27:14.928Z,43.05
2022-10-09T15:29:41.811Z,43.24
2022-10-09T15:32:09.953Z,43.74
2022-10-09T15:34:41.231Z,43.78
2022-10-09T15:37:08.386Z,44.14
2022-10-09T15:39:35.489Z,44.46
2022-10-09T15:42:04.611Z,44.60
2022-10-09T15:44:31.556Z,45.13
2022-10-09T15:46:58.488Z,45.09
2022-10-09T15:49:25.956Z,45.40
2022-10-09T15:51:52.887Z,45.62
2022-10-09T15:54:19.835Z,45.91
2022-10-09T15:56:46.897Z,45.99
2022-10-09T15:59:16.808Z,45.71
2022-10-09T16:01:43.967Z,46.09
2022-10-09T16:04:11.003Z,45.75
2022-10-09T16:06:38.066Z,46.26
2022-10-09T16:09:05.003Z,46.90
2022-10-09T16:11:32.100Z,47.58
2022-10-09T16:13:59.326Z,47.69
2022-10-09T16:16:27.750Z,48.10
2022-10-09T16:18:56.813Z,48.66
2022-10-09T16:21:26.672Z,49.05
2022-10-09T16:23:58.791Z,49.25
2022-10-09T16:26:29.594Z,49.24
2022-10-09T16:28:56.983Z,49.13
2022-10-09T16:31:27.117Z,49.43
2022-10-09T16:33:54.283Z,49.64
2022-10-09T16:36:23.790Z,49.70
2022-10-09T16:38:50.667Z,49.94
2022-10-09T16:41:20.106Z,50.04
2022-10-09T16:43:49.374Z,50.36
2022-10-09T16:46:32.157Z,50.47
2022-10-09T16:49:03.504Z,49.91
2022-10-09T16:51:34.521Z,50.21
2022-10-09T16:54:03.808Z,50.58
2022-10-09T16:56:36.520Z,50.40
2022-10-09T16:59:06.769Z,50.59
2022-10-09T17:01:37.740Z,50.42
2022-10-09T17:04:04.998Z,50.36
2022-10-09T17:06:32.100Z,50.13
2022-10-09T17:08:59.762Z,50.35
2022-10-09T17:11:29.665Z,50.43
2022-10-09T17:13:57.483Z,50.35
2022-10-09T17:16:31.522Z,50.80
2022-10-09T17:18:58.521Z,50.17
2022-10-09T17:21:29.332Z,50.17
2022-10-09T17:24:01.984Z,50.44
2022-10-09T17:26:29.550Z,50.41
2022-10-09T17:42:32.712Z,50.80
2022-10-09T17:45:00.791Z,51.22
2022-10-09T17:47:32.490Z,51.05
2022-10-09T17:50:00.371Z,51.76
2022-10-09T17:52:27.670Z,51.48
2022-10-09T17:54:54.638Z,51.42
2022-10-09T17:57:28.597Z,52.14
2022-10-09T17:59:56.666Z,52.18
2022-10-09T18:02:25.597Z,52.83
2022-10-09T18:04:58.000Z,53.35
2022-10-09T18:07:27.863Z,53.46
2022-10-09T18:09:56.659Z,54.24
2022-10-09T18:12:23.623Z,54.27
2022-10-09T18:14:51.067Z,55.11
2022-10-09T18:17:22.236Z,55.04
2022-10-09T18:19:49.640Z,54.51
2022-10-09T18:22:16.657Z,55.66
2022-10-09T18:24:43.594Z,55.96
2022-10-09T18:27:10.523Z,55.57
2022-10-09T18:29:40.120Z,56.54
2022-10-09T18:32:15.236Z,56.22
2022-10-09T18:34:46.252Z,57.11
2022-10-09T18:37:13.666Z,57.59
2022-10-09T18:39:41.066Z,56.99
2022-10-09T18:42:08.284Z,56.41
2022-10-09T18:44:40.395Z,56.93
2022-10-09T18:47:13.412Z,56.90
2022-10-09T18:49:45.288Z,56.50
2022-10-09T18:52:17.404Z,57.27
2022-10-09T18:54:50.639Z,57.39
2022-10-09T18:57:22.514Z,57.22
2022-10-09T18:59:51.797Z,57.99
2022-10-09T19:02:20.145Z,58.28
2022-10-09T19:04:48.096Z,58.01
2022-10-09T19:07:17.035Z,57.91
2022-10-09T19:09:44.087Z,57.99
2022-10-09T19:12:11.145Z,57.70
2022-10-09T19:14:40.545Z,57.10
2022-10-09T19:17:07.990Z,58.02
2022-10-09T19:19:35.364Z,57.66
2022-10-09T19:22:02.861Z,56.82
2022-10-09T19:24:34.100Z,57.55
2022-10-09T19:27:01.899Z,57.50
2022-10-09T19:29:37.140Z,57.23
2022-10-09T19:32:04.175Z,58.28
2022-10-09T19:34:32.552Z,59.31
2022-10-09T19:36:59.666Z,58.69
2022-10-09T19:39:26.629Z,58.52
2022-10-09T19:41:54.129Z,59.17
2022-10-09T19:44:24.709Z,60.08
2022-10-09T19:46:52.566Z,60.28
2022-10-09T19:49:19.957Z,59.52
2022-10-09T19:51:46.927Z,60.34
2022-10-09T19:54:14.017Z,61.21
2022-10-09T19:56:43.311Z,60.75
2022-10-09T19:59:11.047Z,60.86
2022-10-09T20:01:40.536Z,60.78
2022-10-09T20:04:13.450Z,60.27
2022-10-09T20:06:42.934Z,60.45
2022-10-09T20:09:14.528Z,61.30
2022-10-09T20:11:47.137Z,61.57
2022-10-09T20:14:16.446Z,61.64
2022-10-09T20:16:46.230Z,60.96
2022-10-09T20:19:13.828Z,61.17
2022-10-09T20:21:40.760Z,60.97
2022-10-09T20:24:08.407Z,60.72
2022-10-09T20:26:37.726Z,60.92
2022-10-09T20:29:08.022Z,61.11
2022-10-09T20:31:34.997Z,61.29
2022-10-09T20:34:01.941Z,60.81
2022-10-09T20:36:35.362Z,61.52
2022-10-09T20:39:05.888Z,61.96
2022-10-09T20:41:34.071Z,62.89
2022-10-09T20:44:03.210Z,62.61
2022-10-09T20:46:32.250Z,63.03
2022-10-09T20:48:59.483Z,62.67
2022-10-09T20:51:26.633Z,62.18
2022-10-09T20:53:56.107Z,62.73
2022-10-09T20:56:24.974Z,62.01
2022-10-09T20:58:53.859Z,62.52
2022-10-09T21:01:21.202Z,62.35
2022-10-09T21:03:48.285Z,62.77
2022-10-09T21:06:18.333Z,62.12
2022-10-09T21:08:45.531Z,62.83
2022-10-09T21:11:16.359Z,63.59
2022-10-09T21:13:44.106Z,63.87
2022-10-09T21:16:14.541Z,63.18
2022-10-09T21:18:41.710Z,63.35
2022-10-09T21:21:13.727Z,63.42
2022-10-09T21:23:41.958Z,63.35
2022-10-09T21:26:17.168Z,62.79
2022-10-09T21:28:46.836Z,62.95
2022-10-09T21:31:18.208Z,63.67
2022-10-09T21:33:45.930Z,64.67
2022-10-09T21:36:56.159Z,64.55
2022-10-09T21:39:30.330Z,65.82
2022-10-09T21:41:57.214Z,66.12
2022-10-09T21:44:24.144Z,67.00
2022-10-09T21:46:51.055Z,67.21
2022-10-09T21:49:25.979Z,67.74
2022-10-09T21:51:53.737Z,67.41
2022-10-09T21:54:21.381Z,66.76
2022-10-09T21:56:48.682Z,66.17
2022-10-09T21:59:15.604Z,66.85
2022-10-09T22:01:42.479Z,67.26
2022-10-09T22:04:09.488Z,67.39
2022-10-09T22:06:36.365Z,68.15
2022-10-09T22:09:03.783Z,67.55
2022-10-09T22:11:30.759Z,68.41
2022-10-09T22:13:57.805Z,68.32
2022-10-09T22:16:24.648Z,67.99
2022-10-09T22:18:51.493Z,67.78
2022-10-09T22:21:19.041Z,67.57
2022-10-09T22:23:46.035Z,67.15
2022-10-09T22:26:17.049Z,67.26
2022-10-09T22:28:45.164Z,68.23
2022-10-09T22:31:21.052Z,68.54
2022-10-09T22:34:00.403Z,69.79
2022-10-09T22:36:30.596Z,69.68
2022-10-09T22:38:59.664Z,69.49
2022-10-09T22:41:28.779Z,69.13
2022-10-09T22:43:57.475Z,69.84
2022-10-09T22:46:29.592Z,69.54
2022-10-09T22:48:56.520Z,69.01
2022-10-09T22:51:25.138Z,68.82
2022-10-09T22:53:52.134Z,69.08
2022-10-09T22:56:22.511Z,68.32
2022-10-09T22:58:50.408Z,68.89
2022-10-09T23:01:20.843Z,70.39
2022-10-09T23:03:47.714Z,70.88
2022-10-09T23:06:17.098Z,70.95
2022-10-09T23:08:46.053Z,71.34
2022-10-09T23:11:14.117Z,71.36
2022-10-09T23:13:41.166Z,72.26
2022-10-09T23:16:10.519Z,72.76
2022-10-09T23:18:37.928Z,72.48
2022-10-09T23:21:06.881Z,72.75
2022-10-09T23:23:34.231Z,73.50
2022-10-09T23:26:09.385Z,73.85
2022-10-09T23:28:36.431Z,74.47
2022-10-09T23:31:08.575Z,74.13
2022-10-09T23:33:36.100Z,73.93
2022-10-09T23:36:03.989Z,73.36
2022-10-09T23:38:30.983Z,72.46
2022-10-09T23:41:06.355Z,71.87
2022-10-09T23:43:35.268Z,70.77
2022-10-09T23:46:04.628Z,70.31
2022-10-09T23:48:32.136Z,70.71
2022-10-09T23:50:59.457Z,70.69
2022-10-09T23:53:27.219Z,71.41
2022-10-09T23:55:54.803Z,71.26
2022-10-09T23:58:22.809Z,71.03
